VIDP/DEL METAR and TAF weather

Enter ICAO airport designator
Station Type Date Time Source
VIDP METAR 2021/04/14 19:00 UTC NOAA

VIDP 141900Z 00000KT 2800 HZ FEW040 SCT100 28/04 Q1008 NOSIG


Station Type Date Time Source
VIDP Decoded METAR 2021/04/14 19:00 UTC NOAA

New Delhi / Palam, India (VIDP) 28-34N 077-07E 233M
Apr 14, 2021 - 03:00 PM EDT / 2021.04.14 1900 UTC
Wind: Calm:0
Visibility: 1 mile(s):0
Sky conditions: partly cloudy
Weather: haze
Temperature: 82 F (28 C)
Dew Point: 39 F (4 C)
Relative Humidity: 21%
Pressure (altimeter): 29.77 in. Hg (1008 hPa)
ob: VIDP 141900Z 00000KT 2800 HZ FEW040 SCT100 28/04 Q1008 NOSIG
cycle: 19

Station Type Date Time Source
VIDP TAF 2021/04/14 18:06 UTC NOAA

TAF VIDP 141700Z 1418/1524 23005KT 2500 HZ FEW040 SCT100
BECMG 1422/1503 29010G20KT 1500 BLDU SCT030 FEW040CB BKN100
BECMG 1504/1506 29010KT 3000 HZ FEW040 SCT100
BECMG 1508/1510 29008G18KT 5000 HZ
BECMG 1518/1520 29008KT 3000 HZ SCT100

Example: see airport list